Terminal Aerodrome Forecast
Issued by NWS Portland, OR

Home | Current Version | Previous Version | Text Only | Print | Product List | Glossary On
Versions: 1 2 3 4 5 6 7 8 9 10 11 12 13 14 15 16 17 18 19 20 21 22 23 24 25 26 27 28 29 30 31 32 33 34
689
FTUS46 KPQR 251139
TAFEUG
TAF
KEUG 251139Z 2512/2612 19005KT P6SM VCSH SCT025 BKN050 BKN080
      TEMPO 2512/2515 BKN025
     FM251700 19008KT P6SM -SHRA SCT025 BKN035 BKN060
     FM260100 18005KT P6SM SCT060 BKN150=

USA.gov is the U.S. government's official web portal to all federal, state and local government web resources and services.